sensor_id;sensor_type;location;lat;lon;timestamp;P1;durP1;ratioP1;P2;durP2;ratioP2
19814;SDS011;10067;53.092;8.800;2024-01-11T00:01:18;72.67;;;38.37;;
19814;SDS011;10067;53.092;8.800;2024-01-11T00:03:45;77.33;;;39.87;;
19814;SDS011;10067;53.092;8.800;2024-01-11T00:06:12;80.37;;;39.60;;
19814;SDS011;10067;53.092;8.800;2024-01-11T00:08:38;79.50;;;40.57;;
19814;SDS011;10067;53.092;8.800;2024-01-11T00:11:04;86.10;;;40.90;;
19814;SDS011;10067;53.092;8.800;2024-01-11T00:13:31;82.07;;;40.53;;
19814;SDS011;10067;53.092;8.800;2024-01-11T00:15:57;83.77;;;40.83;;
19814;SDS011;10067;53.092;8.800;2024-01-11T00:18:24;91.43;;;42.47;;
19814;SDS011;10067;53.092;8.800;2024-01-11T00:20:51;88.83;;;42.70;;
19814;SDS011;10067;53.092;8.800;2024-01-11T00:23:17;90.67;;;44.00;;
19814;SDS011;10067;53.092;8.800;2024-01-11T00:25:44;97.60;;;43.53;;
19814;SDS011;10067;53.092;8.800;2024-01-11T00:28:10;97.93;;;44.67;;
19814;SDS011;10067;53.092;8.800;2024-01-11T00:30:37;92.67;;;42.30;;
19814;SDS011;10067;53.092;8.800;2024-01-11T00:33:03;97.60;;;44.43;;
19814;SDS011;10067;53.092;8.800;2024-01-11T00:35:29;92.43;;;44.53;;
19814;SDS011;10067;53.092;8.800;2024-01-11T00:37:57;97.27;;;45.77;;
19814;SDS011;10067;53.092;8.800;2024-01-11T00:40:23;108.10;;;46.83;;
19814;SDS011;10067;53.092;8.800;2024-01-11T00:42:50;101.17;;;46.70;;
19814;SDS011;10067;53.092;8.800;2024-01-11T00:45:16;91.90;;;45.13;;
19814;SDS011;10067;53.092;8.800;2024-01-11T00:47:43;94.97;;;45.63;;
19814;SDS011;10067;53.092;8.800;2024-01-11T00:50:09;93.80;;;45.33;;
19814;SDS011;10067;53.092;8.800;2024-01-11T00:52:36;100.07;;;45.73;;
19814;SDS011;10067;53.092;8.800;2024-01-11T00:55:05;98.33;;;45.60;;
19814;SDS011;10067;53.092;8.800;2024-01-11T00:57:32;98.50;;;44.73;;
19814;SDS011;10067;53.092;8.800;2024-01-11T00:59:58;92.93;;;43.33;;
19814;SDS011;10067;53.092;8.800;2024-01-11T01:02:25;94.67;;;43.93;;
19814;SDS011;10067;53.092;8.800;2024-01-11T01:04:51;98.67;;;45.70;;
19814;SDS011;10067;53.092;8.800;2024-01-11T01:07:17;100.20;;;46.90;;
19814;SDS011;10067;53.092;8.800;2024-01-11T01:09:44;103.27;;;47.10;;
19814;SDS011;10067;53.092;8.800;2024-01-11T01:12:11;105.63;;;47.63;;
19814;SDS011;10067;53.092;8.800;2024-01-11T01:14:38;104.60;;;47.23;;
19814;SDS011;10067;53.092;8.800;2024-01-11T01:17:04;111.00;;;50.97;;
19814;SDS011;10067;53.092;8.800;2024-01-11T01:19:31;119.00;;;52.57;;
19814;SDS011;10067;53.092;8.800;2024-01-11T01:21:58;114.90;;;49.40;;
19814;SDS011;10067;53.092;8.800;2024-01-11T01:24:24;109.80;;;49.93;;
19814;SDS011;10067;53.092;8.800;2024-01-11T01:26:51;105.60;;;48.60;;
19814;SDS011;10067;53.092;8.800;2024-01-11T01:29:18;107.83;;;49.30;;
19814;SDS011;10067;53.092;8.800;2024-01-11T01:31:45;110.17;;;49.43;;
19814;SDS011;10067;53.092;8.800;2024-01-11T01:34:11;105.50;;;49.90;;
19814;SDS011;10067;53.092;8.800;2024-01-11T01:36:40;108.27;;;47.87;;
19814;SDS011;10067;53.092;8.800;2024-01-11T01:39:06;108.27;;;49.87;;
19814;SDS011;10067;53.092;8.800;2024-01-11T01:41:31;108.33;;;49.87;;
19814;SDS011;10067;53.092;8.800;2024-01-11T01:43:58;111.83;;;50.20;;
19814;SDS011;10067;53.092;8.800;2024-01-11T01:46:25;111.93;;;49.60;;
19814;SDS011;10067;53.092;8.800;2024-01-11T01:48:52;110.43;;;51.17;;
19814;SDS011;10067;53.092;8.800;2024-01-11T01:51:19;112.30;;;51.20;;
19814;SDS011;10067;53.092;8.800;2024-01-11T01:53:45;108.90;;;50.63;;
19814;SDS011;10067;53.092;8.800;2024-01-11T01:56:12;119.17;;;53.00;;
19814;SDS011;10067;53.092;8.800;2024-01-11T01:58:39;115.50;;;49.80;;
19814;SDS011;10067;53.092;8.800;2024-01-11T02:01:06;117.60;;;52.17;;
19814;SDS011;10067;53.092;8.800;2024-01-11T02:03:34;110.37;;;48.90;;
19814;SDS011;10067;53.092;8.800;2024-01-11T02:06:02;116.80;;;51.97;;
19814;SDS011;10067;53.092;8.800;2024-01-11T02:08:28;112.60;;;50.07;;
19814;SDS011;10067;53.092;8.800;2024-01-11T02:10:55;110.13;;;50.03;;
19814;SDS011;10067;53.092;8.800;2024-01-11T02:13:22;116.17;;;51.57;;
19814;SDS011;10067;53.092;8.800;2024-01-11T02:15:48;108.80;;;50.90;;
19814;SDS011;10067;53.092;8.800;2024-01-11T02:18:15;115.27;;;50.77;;
19814;SDS011;10067;53.092;8.800;2024-01-11T02:20:43;109.37;;;49.27;;
19814;SDS011;10067;53.092;8.800;2024-01-11T02:23:11;111.43;;;51.07;;
19814;SDS011;10067;53.092;8.800;2024-01-11T02:25:42;110.23;;;50.93;;
19814;SDS011;10067;53.092;8.800;2024-01-11T02:28:08;106.30;;;47.70;;
19814;SDS011;10067;53.092;8.800;2024-01-11T02:30:36;113.77;;;49.77;;
19814;SDS011;10067;53.092;8.800;2024-01-11T02:33:03;111.63;;;51.13;;
19814;SDS011;10067;53.092;8.800;2024-01-11T02:35:29;111.20;;;50.23;;
19814;SDS011;10067;53.092;8.800;2024-01-11T02:37:56;104.67;;;47.77;;
19814;SDS011;10067;53.092;8.800;2024-01-11T02:40:23;110.37;;;48.87;;
19814;SDS011;10067;53.092;8.800;2024-01-11T02:42:51;101.07;;;47.03;;
19814;SDS011;10067;53.092;8.800;2024-01-11T02:45:17;93.73;;;43.90;;
19814;SDS011;10067;53.092;8.800;2024-01-11T02:47:44;97.50;;;45.17;;
19814;SDS011;10067;53.092;8.800;2024-01-11T02:50:10;99.57;;;46.67;;
19814;SDS011;10067;53.092;8.800;2024-01-11T02:52:37;94.33;;;43.70;;
19814;SDS011;10067;53.092;8.800;2024-01-11T02:55:04;97.43;;;42.20;;
19814;SDS011;10067;53.092;8.800;2024-01-11T02:57:31;98.47;;;44.83;;
19814;SDS011;10067;53.092;8.800;2024-01-11T02:59:58;99.63;;;45.27;;
19814;SDS011;10067;53.092;8.800;2024-01-11T03:02:25;98.57;;;45.20;;
19814;SDS011;10067;53.092;8.800;2024-01-11T03:04:51;100.33;;;45.77;;
19814;SDS011;10067;53.092;8.800;2024-01-11T03:07:17;99.43;;;46.40;;
19814;SDS011;10067;53.092;8.800;2024-01-11T03:09:44;94.63;;;44.27;;
19814;SDS011;10067;53.092;8.800;2024-01-11T03:12:10;100.53;;;46.60;;
19814;SDS011;10067;53.092;8.800;2024-01-11T03:14:37;108.23;;;47.07;;
19814;SDS011;10067;53.092;8.800;2024-01-11T03:17:05;106.10;;;46.87;;
19814;SDS011;10067;53.092;8.800;2024-01-11T03:19:31;104.13;;;46.83;;
19814;SDS011;10067;53.092;8.800;2024-01-11T03:21:57;107.50;;;45.63;;
19814;SDS011;10067;53.092;8.800;2024-01-11T03:24:28;106.63;;;46.90;;
19814;SDS011;10067;53.092;8.800;2024-01-11T03:26:54;105.07;;;47.10;;
19814;SDS011;10067;53.092;8.800;2024-01-11T03:29:20;106.57;;;46.07;;
19814;SDS011;10067;53.092;8.800;2024-01-11T03:31:47;102.10;;;46.57;;
19814;SDS011;10067;53.092;8.800;2024-01-11T03:34:14;103.53;;;47.23;;
19814;SDS011;10067;53.092;8.800;2024-01-11T03:36:42;104.03;;;47.23;;
19814;SDS011;10067;53.092;8.800;2024-01-11T03:39:08;103.17;;;47.43;;
19814;SDS011;10067;53.092;8.800;2024-01-11T03:41:34;105.20;;;45.23;;
19814;SDS011;10067;53.092;8.800;2024-01-11T03:44:01;101.47;;;45.60;;
19814;SDS011;10067;53.092;8.800;2024-01-11T03:46:27;103.53;;;46.47;;
19814;SDS011;10067;53.092;8.800;2024-01-11T03:48:53;108.20;;;48.43;;
19814;SDS011;10067;53.092;8.800;2024-01-11T03:51:22;114.17;;;50.20;;
19814;SDS011;10067;53.092;8.800;2024-01-11T03:53:48;116.93;;;49.23;;
19814;SDS011;10067;53.092;8.800;2024-01-11T03:56:14;118.40;;;49.67;;
19814;SDS011;10067;53.092;8.800;2024-01-11T03:58:41;118.97;;;51.30;;
19814;SDS011;10067;53.092;8.800;2024-01-11T04:01:10;115.97;;;48.33;;
19814;SDS011;10067;53.092;8.800;2024-01-11T04:03:36;124.00;;;51.97;;
19814;SDS011;10067;53.092;8.800;2024-01-11T04:06:03;121.27;;;50.40;;
19814;SDS011;10067;53.092;8.800;2024-01-11T04:08:30;122.67;;;49.60;;
19814;SDS011;10067;53.092;8.800;2024-01-11T04:11:01;123.13;;;51.80;;
19814;SDS011;10067;53.092;8.800;2024-01-11T04:13:30;119.17;;;49.20;;
19814;SDS011;10067;53.092;8.800;2024-01-11T04:15:57;120.73;;;50.23;;
19814;SDS011;10067;53.092;8.800;2024-01-11T04:18:23;123.43;;;50.93;;
19814;SDS011;10067;53.092;8.800;2024-01-11T04:20:50;118.10;;;50.30;;
19814;SDS011;10067;53.092;8.800;2024-01-11T04:23:16;112.17;;;49.23;;
19814;SDS011;10067;53.092;8.800;2024-01-11T04:25:44;109.13;;;47.63;;
19814;SDS011;10067;53.092;8.800;2024-01-11T04:28:10;108.17;;;47.40;;
19814;SDS011;10067;53.092;8.800;2024-01-11T04:30:37;109.67;;;47.80;;
19814;SDS011;10067;53.092;8.800;2024-01-11T04:33:03;111.57;;;48.47;;
19814;SDS011;10067;53.092;8.800;2024-01-11T04:35:29;105.60;;;46.40;;
19814;SDS011;10067;53.092;8.800;2024-01-11T04:37:56;109.87;;;46.77;;
19814;SDS011;10067;53.092;8.800;2024-01-11T04:40:22;106.20;;;45.83;;
19814;SDS011;10067;53.092;8.800;2024-01-11T04:42:50;107.40;;;47.17;;
19814;SDS011;10067;53.092;8.800;2024-01-11T04:45:16;109.00;;;47.03;;
19814;SDS011;10067;53.092;8.800;2024-01-11T04:47:43;99.63;;;44.97;;
19814;SDS011;10067;53.092;8.800;2024-01-11T04:50:10;102.80;;;45.70;;
19814;SDS011;10067;53.092;8.800;2024-01-11T04:52:36;104.73;;;46.97;;
19814;SDS011;10067;53.092;8.800;2024-01-11T04:55:02;101.13;;;44.97;;
19814;SDS011;10067;53.092;8.800;2024-01-11T04:57:29;103.60;;;46.77;;
19814;SDS011;10067;53.092;8.800;2024-01-11T04:59:57;97.33;;;43.67;;
19814;SDS011;10067;53.092;8.800;2024-01-11T05:02:23;102.30;;;44.77;;
19814;SDS011;10067;53.092;8.800;2024-01-11T05:04:49;106.50;;;45.03;;
19814;SDS011;10067;53.092;8.800;2024-01-11T05:07:16;107.93;;;45.83;;
19814;SDS011;10067;53.092;8.800;2024-01-11T05:09:42;102.83;;;45.87;;
19814;SDS011;10067;53.092;8.800;2024-01-11T05:12:08;109.30;;;44.57;;
19814;SDS011;10067;53.092;8.800;2024-01-11T05:14:36;104.30;;;45.00;;
19814;SDS011;10067;53.092;8.800;2024-01-11T05:17:04;103.37;;;44.43;;
19814;SDS011;10067;53.092;8.800;2024-01-11T05:19:31;103.57;;;45.77;;
19814;SDS011;10067;53.092;8.800;2024-01-11T05:21:57;111.60;;;47.70;;
19814;SDS011;10067;53.092;8.800;2024-01-11T05:24:24;110.00;;;46.03;;
19814;SDS011;10067;53.092;8.800;2024-01-11T05:26:50;114.63;;;47.03;;
19814;SDS011;10067;53.092;8.800;2024-01-11T05:29:16;114.27;;;47.73;;
19814;SDS011;10067;53.092;8.800;2024-01-11T05:31:43;109.23;;;47.07;;
19814;SDS011;10067;53.092;8.800;2024-01-11T05:34:10;106.47;;;45.47;;
19814;SDS011;10067;53.092;8.800;2024-01-11T05:36:38;111.43;;;46.80;;
19814;SDS011;10067;53.092;8.800;2024-01-11T05:39:04;109.93;;;46.73;;
19814;SDS011;10067;53.092;8.800;2024-01-11T05:41:31;112.37;;;48.07;;
19814;SDS011;10067;53.092;8.800;2024-01-11T05:43:57;109.93;;;45.70;;
19814;SDS011;10067;53.092;8.800;2024-01-11T05:46:24;112.50;;;48.13;;
19814;SDS011;10067;53.092;8.800;2024-01-11T05:48:50;114.57;;;46.90;;
19814;SDS011;10067;53.092;8.800;2024-01-11T05:51:18;114.17;;;47.17;;
19814;SDS011;10067;53.092;8.800;2024-01-11T05:53:44;118.70;;;47.17;;
19814;SDS011;10067;53.092;8.800;2024-01-11T05:56:10;116.50;;;48.30;;
19814;SDS011;10067;53.092;8.800;2024-01-11T05:58:37;111.57;;;46.70;;
19814;SDS011;10067;53.092;8.800;2024-01-11T06:01:03;118.17;;;47.60;;
19814;SDS011;10067;53.092;8.800;2024-01-11T06:03:30;119.10;;;49.50;;
19814;SDS011;10067;53.092;8.800;2024-01-11T06:05:59;120.93;;;50.50;;
19814;SDS011;10067;53.092;8.800;2024-01-11T06:08:26;128.60;;;50.83;;
19814;SDS011;10067;53.092;8.800;2024-01-11T06:10:53;122.13;;;50.07;;
19814;SDS011;10067;53.092;8.800;2024-01-11T06:13:19;129.93;;;50.93;;
19814;SDS011;10067;53.092;8.800;2024-01-11T06:15:45;128.93;;;51.23;;
19814;SDS011;10067;53.092;8.800;2024-01-11T06:18:12;130.43;;;50.80;;
19814;SDS011;10067;53.092;8.800;2024-01-11T06:20:38;135.13;;;53.03;;
19814;SDS011;10067;53.092;8.800;2024-01-11T06:23:05;129.47;;;51.73;;
19814;SDS011;10067;53.092;8.800;2024-01-11T06:25:32;136.63;;;53.40;;
19814;SDS011;10067;53.092;8.800;2024-01-11T06:27:59;130.43;;;53.37;;
19814;SDS011;10067;53.092;8.800;2024-01-11T06:30:25;133.87;;;53.87;;
19814;SDS011;10067;53.092;8.800;2024-01-11T06:32:52;135.50;;;53.97;;
19814;SDS011;10067;53.092;8.800;2024-01-11T06:35:18;130.63;;;51.73;;
19814;SDS011;10067;53.092;8.800;2024-01-11T06:37:44;129.07;;;53.40;;
19814;SDS011;10067;53.092;8.800;2024-01-11T06:40:11;126.80;;;52.97;;
19814;SDS011;10067;53.092;8.800;2024-01-11T06:42:38;135.30;;;53.03;;
19814;SDS011;10067;53.092;8.800;2024-01-11T06:45:05;133.53;;;53.37;;
19814;SDS011;10067;53.092;8.800;2024-01-11T06:47:31;138.10;;;51.73;;
19814;SDS011;10067;53.092;8.800;2024-01-11T06:49:58;137.70;;;52.77;;
19814;SDS011;10067;53.092;8.800;2024-01-11T06:52:24;131.50;;;52.27;;
19814;SDS011;10067;53.092;8.800;2024-01-11T06:54:51;142.83;;;51.97;;
19814;SDS011;10067;53.092;8.800;2024-01-11T06:57:17;134.73;;;53.93;;
19814;SDS011;10067;53.092;8.800;2024-01-11T06:59:45;130.27;;;52.27;;
19814;SDS011;10067;53.092;8.800;2024-01-11T07:02:11;134.57;;;52.87;;
19814;SDS011;10067;53.092;8.800;2024-01-11T07:04:38;136.23;;;51.80;;
19814;SDS011;10067;53.092;8.800;2024-01-11T07:07:04;144.33;;;52.77;;
19814;SDS011;10067;53.092;8.800;2024-01-11T07:09:30;134.23;;;50.90;;
19814;SDS011;10067;53.092;8.800;2024-01-11T07:11:57;146.07;;;52.33;;
19814;SDS011;10067;53.092;8.800;2024-01-11T07:14:23;140.40;;;50.10;;
19814;SDS011;10067;53.092;8.800;2024-01-11T07:16:51;144.23;;;52.60;;
19814;SDS011;10067;53.092;8.800;2024-01-11T07:19:17;142.87;;;51.80;;
19814;SDS011;10067;53.092;8.800;2024-01-11T07:21:43;167.30;;;55.13;;
19814;SDS011;10067;53.092;8.800;2024-01-11T07:24:10;163.20;;;54.37;;
19814;SDS011;10067;53.092;8.800;2024-01-11T07:26:36;158.13;;;53.73;;
19814;SDS011;10067;53.092;8.800;2024-01-11T07:29:03;151.97;;;53.20;;
19814;SDS011;10067;53.092;8.800;2024-01-11T07:31:29;158.13;;;57.70;;
19814;SDS011;10067;53.092;8.800;2024-01-11T07:33:57;156.60;;;56.03;;
19814;SDS011;10067;53.092;8.800;2024-01-11T07:36:23;165.60;;;56.40;;
19814;SDS011;10067;53.092;8.800;2024-01-11T07:38:50;155.10;;;53.87;;
19814;SDS011;10067;53.092;8.800;2024-01-11T07:41:16;163.77;;;55.27;;
19814;SDS011;10067;53.092;8.800;2024-01-11T07:43:43;163.17;;;57.77;;
19814;SDS011;10067;53.092;8.800;2024-01-11T07:46:09;163.47;;;59.20;;
19814;SDS011;10067;53.092;8.800;2024-01-11T07:48:35;166.37;;;58.27;;
19814;SDS011;10067;53.092;8.800;2024-01-11T07:51:03;167.10;;;56.80;;
19814;SDS011;10067;53.092;8.800;2024-01-11T07:53:30;175.67;;;57.47;;
19814;SDS011;10067;53.092;8.800;2024-01-11T07:55:57;180.83;;;61.60;;
19814;SDS011;10067;53.092;8.800;2024-01-11T07:58:23;173.07;;;60.10;;
19814;SDS011;10067;53.092;8.800;2024-01-11T08:00:49;173.37;;;63.43;;
19814;SDS011;10067;53.092;8.800;2024-01-11T08:03:17;178.03;;;60.87;;
19814;SDS011;10067;53.092;8.800;2024-01-11T08:05:43;169.17;;;59.13;;
19814;SDS011;10067;53.092;8.800;2024-01-11T08:08:11;173.50;;;59.00;;
19814;SDS011;10067;53.092;8.800;2024-01-11T08:10:37;161.07;;;55.33;;
19814;SDS011;10067;53.092;8.800;2024-01-11T08:13:04;167.67;;;55.53;;
19814;SDS011;10067;53.092;8.800;2024-01-11T08:15:30;176.53;;;56.37;;
19814;SDS011;10067;53.092;8.800;2024-01-11T08:17:56;166.73;;;54.10;;
19814;SDS011;10067;53.092;8.800;2024-01-11T08:20:23;160.07;;;56.10;;
19814;SDS011;10067;53.092;8.800;2024-01-11T08:22:49;162.87;;;59.23;;
19814;SDS011;10067;53.092;8.800;2024-01-11T08:25:17;166.17;;;62.50;;
19814;SDS011;10067;53.092;8.800;2024-01-11T08:27:43;162.00;;;62.53;;
19814;SDS011;10067;53.092;8.800;2024-01-11T08:30:10;166.57;;;59.57;;
19814;SDS011;10067;53.092;8.800;2024-01-11T08:32:37;167.10;;;56.43;;
19814;SDS011;10067;53.092;8.800;2024-01-11T08:35:04;153.17;;;52.63;;
19814;SDS011;10067;53.092;8.800;2024-01-11T08:37:31;159.60;;;57.10;;
19814;SDS011;10067;53.092;8.800;2024-01-11T08:39:57;164.97;;;57.03;;
19814;SDS011;10067;53.092;8.800;2024-01-11T08:42:25;168.50;;;56.90;;
19814;SDS011;10067;53.092;8.800;2024-01-11T08:44:51;171.10;;;58.90;;
19814;SDS011;10067;53.092;8.800;2024-01-11T08:47:18;160.47;;;57.70;;
19814;SDS011;10067;53.092;8.800;2024-01-11T08:49:44;168.33;;;59.33;;
19814;SDS011;10067;53.092;8.800;2024-01-11T08:52:11;174.93;;;63.73;;
19814;SDS011;10067;53.092;8.800;2024-01-11T08:54:37;176.77;;;63.77;;
19814;SDS011;10067;53.092;8.800;2024-01-11T08:57:03;173.53;;;65.23;;
19814;SDS011;10067;53.092;8.800;2024-01-11T08:59:31;167.47;;;62.67;;
19814;SDS011;10067;53.092;8.800;2024-01-11T09:01:58;168.67;;;61.10;;
19814;SDS011;10067;53.092;8.800;2024-01-11T09:04:24;172.13;;;62.83;;
19814;SDS011;10067;53.092;8.800;2024-01-11T09:06:53;158.17;;;55.17;;
19814;SDS011;10067;53.092;8.800;2024-01-11T09:09:21;166.23;;;57.03;;
19814;SDS011;10067;53.092;8.800;2024-01-11T09:11:47;151.63;;;51.33;;
19814;SDS011;10067;53.092;8.800;2024-01-11T09:14:14;155.37;;;58.23;;
19814;SDS011;10067;53.092;8.800;2024-01-11T09:16:42;157.60;;;55.53;;
19814;SDS011;10067;53.092;8.800;2024-01-11T09:19:09;159.53;;;55.47;;
19814;SDS011;10067;53.092;8.800;2024-01-11T09:21:36;159.43;;;54.83;;
19814;SDS011;10067;53.092;8.800;2024-01-11T09:24:02;158.50;;;56.93;;
19814;SDS011;10067;53.092;8.800;2024-01-11T09:26:29;150.70;;;55.77;;
19814;SDS011;10067;53.092;8.800;2024-01-11T09:28:55;148.10;;;56.50;;
19814;SDS011;10067;53.092;8.800;2024-01-11T09:31:22;146.93;;;54.93;;
19814;SDS011;10067;53.092;8.800;2024-01-11T09:33:50;145.90;;;54.20;;
19814;SDS011;10067;53.092;8.800;2024-01-11T09:36:17;155.03;;;56.63;;
19814;SDS011;10067;53.092;8.800;2024-01-11T09:38:44;149.13;;;55.43;;
19814;SDS011;10067;53.092;8.800;2024-01-11T09:41:12;143.80;;;54.73;;
19814;SDS011;10067;53.092;8.800;2024-01-11T09:43:38;140.87;;;54.53;;
19814;SDS011;10067;53.092;8.800;2024-01-11T09:46:07;145.53;;;53.37;;
19814;SDS011;10067;53.092;8.800;2024-01-11T09:48:34;148.07;;;52.60;;
19814;SDS011;10067;53.092;8.800;2024-01-11T09:51:03;143.43;;;53.27;;
19814;SDS011;10067;53.092;8.800;2024-01-11T09:53:29;147.17;;;54.77;;
19814;SDS011;10067;53.092;8.800;2024-01-11T09:55:57;138.57;;;51.33;;
19814;SDS011;10067;53.092;8.800;2024-01-11T09:58:24;139.40;;;52.83;;
19814;SDS011;10067;53.092;8.800;2024-01-11T10:00:51;133.23;;;52.83;;
19814;SDS011;10067;53.092;8.800;2024-01-11T10:03:20;142.87;;;57.17;;
19814;SDS011;10067;53.092;8.800;2024-01-11T10:05:46;145.13;;;60.57;;
19814;SDS011;10067;53.092;8.800;2024-01-11T10:08:17;138.43;;;58.10;;
19814;SDS011;10067;53.092;8.800;2024-01-11T10:10:43;141.07;;;57.40;;
19814;SDS011;10067;53.092;8.800;2024-01-11T10:13:10;144.40;;;57.47;;
19814;SDS011;10067;53.092;8.800;2024-01-11T10:15:36;144.40;;;57.53;;
19814;SDS011;10067;53.092;8.800;2024-01-11T10:18:03;136.77;;;53.57;;
19814;SDS011;10067;53.092;8.800;2024-01-11T10:20:29;137.77;;;51.57;;
19814;SDS011;10067;53.092;8.800;2024-01-11T10:22:57;138.70;;;52.53;;
19814;SDS011;10067;53.092;8.800;2024-01-11T10:25:25;146.87;;;57.17;;
19814;SDS011;10067;53.092;8.800;2024-01-11T10:27:52;132.23;;;50.67;;
19814;SDS011;10067;53.092;8.800;2024-01-11T10:30:18;139.53;;;52.57;;
19814;SDS011;10067;53.092;8.800;2024-01-11T10:32:47;135.00;;;52.20;;
19814;SDS011;10067;53.092;8.800;2024-01-11T10:35:13;136.80;;;52.70;;
19814;SDS011;10067;53.092;8.800;2024-01-11T10:37:42;124.63;;;48.67;;
19814;SDS011;10067;53.092;8.800;2024-01-11T10:40:09;133.43;;;51.37;;
19814;SDS011;10067;53.092;8.800;2024-01-11T10:42:37;127.30;;;49.97;;
19814;SDS011;10067;53.092;8.800;2024-01-11T10:45:06;133.17;;;48.53;;
19814;SDS011;10067;53.092;8.800;2024-01-11T10:47:36;118.90;;;47.93;;
19814;SDS011;10067;53.092;8.800;2024-01-11T10:50:03;122.77;;;45.80;;
19814;SDS011;10067;53.092;8.800;2024-01-11T10:52:33;109.87;;;44.87;;
19814;SDS011;10067;53.092;8.800;2024-01-11T10:55:02;121.27;;;46.17;;
19814;SDS011;10067;53.092;8.800;2024-01-11T10:57:29;115.00;;;46.10;;
19814;SDS011;10067;53.092;8.800;2024-01-11T10:59:57;106.93;;;44.20;;
19814;SDS011;10067;53.092;8.800;2024-01-11T11:02:24;115.00;;;44.53;;
19814;SDS011;10067;53.092;8.800;2024-01-11T11:04:51;114.63;;;46.40;;
19814;SDS011;10067;53.092;8.800;2024-01-11T11:07:19;108.70;;;44.43;;
19814;SDS011;10067;53.092;8.800;2024-01-11T11:09:46;104.07;;;42.47;;
19814;SDS011;10067;53.092;8.800;2024-01-11T11:12:12;103.77;;;42.40;;
19814;SDS011;10067;53.092;8.800;2024-01-11T11:14:39;114.00;;;44.50;;
19814;SDS011;10067;53.092;8.800;2024-01-11T11:17:07;105.30;;;43.40;;
19814;SDS011;10067;53.092;8.800;2024-01-11T11:19:33;108.30;;;42.53;;
19814;SDS011;10067;53.092;8.800;2024-01-11T11:22:03;113.37;;;45.00;;
19814;SDS011;10067;53.092;8.800;2024-01-11T11:24:29;105.23;;;42.40;;
19814;SDS011;10067;53.092;8.800;2024-01-11T11:26:56;102.17;;;42.93;;
19814;SDS011;10067;53.092;8.800;2024-01-11T11:29:24;105.53;;;42.97;;
19814;SDS011;10067;53.092;8.800;2024-01-11T11:31:50;102.30;;;41.37;;
19814;SDS011;10067;53.092;8.800;2024-01-11T11:34:20;110.70;;;43.63;;
19814;SDS011;10067;53.092;8.800;2024-01-11T11:36:46;104.50;;;41.00;;
19814;SDS011;10067;53.092;8.800;2024-01-11T11:39:14;108.70;;;42.83;;
19814;SDS011;10067;53.092;8.800;2024-01-11T11:41:41;96.57;;;39.27;;
19814;SDS011;10067;53.092;8.800;2024-01-11T11:44:08;96.87;;;41.23;;
19814;SDS011;10067;53.092;8.800;2024-01-11T11:46:38;98.77;;;39.63;;
19814;SDS011;10067;53.092;8.800;2024-01-11T11:49:04;112.47;;;43.70;;
19814;SDS011;10067;53.092;8.800;2024-01-11T11:51:33;121.80;;;51.63;;
19814;SDS011;10067;53.092;8.800;2024-01-11T11:54:01;120.00;;;50.43;;
19814;SDS011;10067;53.092;8.800;2024-01-11T11:56:28;104.63;;;43.07;;
19814;SDS011;10067;53.092;8.800;2024-01-11T11:58:54;101.03;;;41.07;;
19814;SDS011;10067;53.092;8.800;2024-01-11T12:01:20;110.13;;;46.50;;
19814;SDS011;10067;53.092;8.800;2024-01-11T12:03:46;107.47;;;46.20;;
19814;SDS011;10067;53.092;8.800;2024-01-11T12:06:15;109.17;;;49.27;;
19814;SDS011;10067;53.092;8.800;2024-01-11T12:08:43;102.97;;;42.07;;
19814;SDS011;10067;53.092;8.800;2024-01-11T12:11:12;104.70;;;43.63;;
19814;SDS011;10067;53.092;8.800;2024-01-11T12:13:39;111.97;;;44.43;;
19814;SDS011;10067;53.092;8.800;2024-01-11T12:16:06;108.97;;;40.47;;
19814;SDS011;10067;53.092;8.800;2024-01-11T12:18:32;113.17;;;44.37;;
19814;SDS011;10067;53.092;8.800;2024-01-11T12:20:59;111.80;;;44.57;;
19814;SDS011;10067;53.092;8.800;2024-01-11T12:23:25;113.70;;;42.20;;
19814;SDS011;10067;53.092;8.800;2024-01-11T12:25:56;111.00;;;42.47;;
19814;SDS011;10067;53.092;8.800;2024-01-11T12:28:23;112.17;;;44.13;;
19814;SDS011;10067;53.092;8.800;2024-01-11T12:30:49;112.27;;;43.57;;
19814;SDS011;10067;53.092;8.800;2024-01-11T12:33:16;100.80;;;40.97;;
19814;SDS011;10067;53.092;8.800;2024-01-11T12:35:43;118.83;;;43.67;;
19814;SDS011;10067;53.092;8.800;2024-01-11T12:38:10;115.17;;;43.33;;
19814;SDS011;10067;53.092;8.800;2024-01-11T12:40:37;108.10;;;40.57;;
19814;SDS011;10067;53.092;8.800;2024-01-11T12:43:11;107.00;;;40.60;;
19814;SDS011;10067;53.092;8.800;2024-01-11T12:45:37;114.17;;;42.30;;
19814;SDS011;10067;53.092;8.800;2024-01-11T12:48:06;98.57;;;40.27;;
19814;SDS011;10067;53.092;8.800;2024-01-11T12:50:33;103.57;;;40.60;;
19814;SDS011;10067;53.092;8.800;2024-01-11T12:53:04;101.43;;;41.30;;
19814;SDS011;10067;53.092;8.800;2024-01-11T12:55:31;107.00;;;42.27;;
19814;SDS011;10067;53.092;8.800;2024-01-11T12:58:02;104.00;;;40.80;;
19814;SDS011;10067;53.092;8.800;2024-01-11T13:00:30;97.07;;;39.90;;
19814;SDS011;10067;53.092;8.800;2024-01-11T13:02:57;103.03;;;41.37;;
19814;SDS011;10067;53.092;8.800;2024-01-11T13:05:24;111.00;;;45.13;;
19814;SDS011;10067;53.092;8.800;2024-01-11T13:07:51;104.87;;;42.33;;
19814;SDS011;10067;53.092;8.800;2024-01-11T13:10:17;119.30;;;48.50;;
19814;SDS011;10067;53.092;8.800;2024-01-11T13:12:43;131.60;;;51.27;;
19814;SDS011;10067;53.092;8.800;2024-01-11T13:15:10;107.67;;;40.57;;
19814;SDS011;10067;53.092;8.800;2024-01-11T13:17:38;112.03;;;41.53;;
19814;SDS011;10067;53.092;8.800;2024-01-11T13:20:05;102.77;;;40.83;;
19814;SDS011;10067;53.092;8.800;2024-01-11T13:22:32;95.00;;;38.17;;
19814;SDS011;10067;53.092;8.800;2024-01-11T13:24:58;102.40;;;39.53;;
19814;SDS011;10067;53.092;8.800;2024-01-11T13:27:25;95.37;;;37.80;;
19814;SDS011;10067;53.092;8.800;2024-01-11T13:29:51;99.70;;;38.23;;
19814;SDS011;10067;53.092;8.800;2024-01-11T13:32:18;97.93;;;39.50;;
19814;SDS011;10067;53.092;8.800;2024-01-11T13:34:48;96.30;;;38.47;;
19814;SDS011;10067;53.092;8.800;2024-01-11T13:37:18;99.80;;;39.03;;
19814;SDS011;10067;53.092;8.800;2024-01-11T13:39:44;94.37;;;39.17;;
19814;SDS011;10067;53.092;8.800;2024-01-11T13:42:11;95.13;;;38.87;;
19814;SDS011;10067;53.092;8.800;2024-01-11T13:44:38;101.93;;;39.67;;
19814;SDS011;10067;53.092;8.800;2024-01-11T13:47:05;99.17;;;39.50;;
19814;SDS011;10067;53.092;8.800;2024-01-11T13:49:32;97.90;;;36.33;;
19814;SDS011;10067;53.092;8.800;2024-01-11T13:52:00;91.97;;;37.10;;
19814;SDS011;10067;53.092;8.800;2024-01-11T13:54:29;105.37;;;40.20;;
19814;SDS011;10067;53.092;8.800;2024-01-11T13:56:56;104.93;;;39.97;;
19814;SDS011;10067;53.092;8.800;2024-01-11T13:59:22;104.77;;;39.93;;
19814;SDS011;10067;53.092;8.800;2024-01-11T14:01:48;91.40;;;37.43;;
19814;SDS011;10067;53.092;8.800;2024-01-11T14:04:15;96.23;;;38.27;;
19814;SDS011;10067;53.092;8.800;2024-01-11T14:06:42;98.23;;;38.43;;
19814;SDS011;10067;53.092;8.800;2024-01-11T14:09:09;90.10;;;38.30;;